Leslie, Missouri
Current Conditions -  °F | °C
As of 11:35 PM on Saturday 20 Dec 2014 (Local Time) from KFYG Reporting Station
Overcast Overcast  
Wind Chill: 38°   Ceiling: 2500
Heat Index: 41°   Visibility: 10mi
Dew Point: 36°   Wind: 5mph
Humidity: 81%   Direction: 140°SE
Pressure: 30.23"   Gusts: NA
Location:  38.42°N, 91.23°W
Report Text: KFYG 210535Z AUTO 14004KT 10SM OVC025 05/02 A3023 RMK AO2
Loading
Personal Weather Stations






























Interactive Weather Map New forecast layout! Learn more

10-Day Weather Forecast

Advertisements
Track Severe Weather on mobile